sensor_id;sensor_type;location;lat;lon;timestamp;pressure;altitude;pressure_sealevel;temperature;humidity
52625;BME280;38519;52.540;13.410;2022-12-16T00:01:29;100428.19;;;-5.89;100.00
52625;BME280;38519;52.540;13.410;2022-12-16T00:03:48;100427.81;;;-6.05;100.00
52625;BME280;38519;52.540;13.410;2022-12-16T00:06:14;100426.09;;;-6.11;100.00
52625;BME280;38519;52.540;13.410;2022-12-16T00:08:40;100422.94;;;-6.16;100.00
52625;BME280;38519;52.540;13.410;2022-12-16T00:11:06;100422.59;;;-6.12;100.00
52625;BME280;38519;52.540;13.410;2022-12-16T00:13:32;100428.63;;;-6.11;100.00
52625;BME280;38519;52.540;13.410;2022-12-16T00:15:58;100420.88;;;-6.18;100.00
52625;BME280;38519;52.540;13.410;2022-12-16T00:18:24;100426.50;;;-6.21;100.00
52625;BME280;38519;52.540;13.410;2022-12-16T00:20:51;100427.00;;;-6.24;100.00
52625;BME280;38519;52.540;13.410;2022-12-16T00:23:17;100436.53;;;-6.15;100.00
52625;BME280;38519;52.540;13.410;2022-12-16T00:25:43;100438.25;;;-5.96;100.00
52625;BME280;38519;52.540;13.410;2022-12-16T00:28:10;100437.81;;;-5.86;100.00
52625;BME280;38519;52.540;13.410;2022-12-16T00:30:36;100433.09;;;-6.03;100.00
52625;BME280;38519;52.540;13.410;2022-12-16T00:33:01;100432.78;;;-6.12;100.00
52625;BME280;38519;52.540;13.410;2022-12-16T00:35:27;100441.00;;;-6.20;100.00
52625;BME280;38519;52.540;13.410;2022-12-16T00:37:54;100438.06;;;-6.23;100.00
52625;BME280;38519;52.540;13.410;2022-12-16T00:40:20;100446.00;;;-6.14;100.00
52625;BME280;38519;52.540;13.410;2022-12-16T00:42:45;100436.13;;;-6.18;100.00
52625;BME280;38519;52.540;13.410;2022-12-16T00:45:11;100451.28;;;-6.26;100.00
52625;BME280;38519;52.540;13.410;2022-12-16T00:47:36;100452.47;;;-6.29;100.00
52625;BME280;38519;52.540;13.410;2022-12-16T00:50:02;100458.28;;;-6.30;100.00
52625;BME280;38519;52.540;13.410;2022-12-16T00:52:27;100466.00;;;-6.36;100.00
52625;BME280;38519;52.540;13.410;2022-12-16T00:54:52;100457.66;;;-6.35;100.00
52625;BME280;38519;52.540;13.410;2022-12-16T00:57:18;100461.94;;;-6.41;100.00
52625;BME280;38519;52.540;13.410;2022-12-16T00:59:43;100464.38;;;-6.48;100.00
52625;BME280;38519;52.540;13.410;2022-12-16T01:02:09;100460.59;;;-6.45;100.00
52625;BME280;38519;52.540;13.410;2022-12-16T01:04:35;100455.00;;;-6.42;100.00
52625;BME280;38519;52.540;13.410;2022-12-16T01:07:00;100453.69;;;-6.46;100.00
52625;BME280;38519;52.540;13.410;2022-12-16T01:09:25;100453.38;;;-6.54;100.00
52625;BME280;38519;52.540;13.410;2022-12-16T01:11:51;100453.78;;;-6.51;100.00
52625;BME280;38519;52.540;13.410;2022-12-16T01:14:16;100457.44;;;-6.49;100.00
52625;BME280;38519;52.540;13.410;2022-12-16T01:16:42;100452.44;;;-6.55;100.00
52625;BME280;38519;52.540;13.410;2022-12-16T01:19:07;100450.94;;;-6.47;100.00
52625;BME280;38519;52.540;13.410;2022-12-16T01:21:32;100456.84;;;-6.41;100.00
52625;BME280;38519;52.540;13.410;2022-12-16T01:23:58;100455.53;;;-6.45;100.00
52625;BME280;38519;52.540;13.410;2022-12-16T01:26:23;100459.28;;;-6.48;100.00
52625;BME280;38519;52.540;13.410;2022-12-16T01:28:49;100462.72;;;-6.48;100.00
52625;BME280;38519;52.540;13.410;2022-12-16T01:31:16;100468.22;;;-6.45;100.00
52625;BME280;38519;52.540;13.410;2022-12-16T01:33:42;100467.69;;;-6.42;100.00
52625;BME280;38519;52.540;13.410;2022-12-16T01:36:08;100468.63;;;-6.42;100.00
52625;BME280;38519;52.540;13.410;2022-12-16T01:38:34;100461.09;;;-6.47;100.00
52625;BME280;38519;52.540;13.410;2022-12-16T01:40:59;100462.94;;;-6.46;100.00
52625;BME280;38519;52.540;13.410;2022-12-16T01:43:26;100461.72;;;-6.43;100.00
52625;BME280;38519;52.540;13.410;2022-12-16T01:45:53;100459.69;;;-6.45;100.00
52625;BME280;38519;52.540;13.410;2022-12-16T01:51:02;100452.28;;;-6.31;100.00
52625;BME280;38519;52.540;13.410;2022-12-16T01:53:29;100462.66;;;-6.29;100.00
52625;BME280;38519;52.540;13.410;2022-12-16T01:55:55;100457.25;;;-6.38;100.00
52625;BME280;38519;52.540;13.410;2022-12-16T01:58:22;100461.31;;;-6.33;100.00
52625;BME280;38519;52.540;13.410;2022-12-16T02:00:49;100461.25;;;-6.14;100.00
52625;BME280;38519;52.540;13.410;2022-12-16T02:03:14;100464.91;;;-6.12;100.00
52625;BME280;38519;52.540;13.410;2022-12-16T02:05:40;100455.44;;;-6.13;100.00
52625;BME280;38519;52.540;13.410;2022-12-16T02:08:16;100457.28;;;-6.12;100.00
52625;BME280;38519;52.540;13.410;2022-12-16T02:13:16;100456.66;;;-6.30;100.00
52625;BME280;38519;52.540;13.410;2022-12-16T02:15:51;100452.91;;;-6.26;100.00
52625;BME280;38519;52.540;13.410;2022-12-16T02:18:24;100455.72;;;-6.43;100.00
52625;BME280;38519;52.540;13.410;2022-12-16T02:33:51;100448.94;;;-6.37;100.00
52625;BME280;38519;52.540;13.410;2022-12-16T02:38:57;100447.28;;;-6.49;100.00
52625;BME280;38519;52.540;13.410;2022-12-16T02:41:32;100449.72;;;-6.44;100.00
52625;BME280;38519;52.540;13.410;2022-12-16T02:44:02;100460.69;;;-6.50;100.00
52625;BME280;38519;52.540;13.410;2022-12-16T02:46:29;100444.13;;;-6.54;100.00
52625;BME280;38519;52.540;13.410;2022-12-16T02:48:56;100451.53;;;-6.55;100.00
52625;BME280;38519;52.540;13.410;2022-12-16T02:51:22;100441.28;;;-6.63;100.00
52625;BME280;38519;52.540;13.410;2022-12-16T02:53:49;100437.59;;;-6.65;100.00
52625;BME280;38519;52.540;13.410;2022-12-16T03:06:52;100436.63;;;-6.47;100.00
52625;BME280;38519;52.540;13.410;2022-12-16T03:09:21;100436.09;;;-6.44;100.00
52625;BME280;38519;52.540;13.410;2022-12-16T03:11:47;100433.34;;;-6.59;100.00
52625;BME280;38519;52.540;13.410;2022-12-16T03:14:14;100435.78;;;-6.66;100.00
52625;BME280;38519;52.540;13.410;2022-12-16T03:16:40;100440.97;;;-6.59;100.00
52625;BME280;38519;52.540;13.410;2022-12-16T03:19:08;100444.22;;;-6.60;100.00
52625;BME280;38519;52.540;13.410;2022-12-16T03:21:37;100441.97;;;-6.64;100.00
52625;BME280;38519;52.540;13.410;2022-12-16T03:24:06;100442.97;;;-6.69;100.00
52625;BME280;38519;52.540;13.410;2022-12-16T03:26:42;100435.16;;;-6.70;100.00
52625;BME280;38519;52.540;13.410;2022-12-16T03:29:12;100436.38;;;-6.74;100.00
52625;BME280;38519;52.540;13.410;2022-12-16T03:31:53;100437.34;;;-6.79;100.00
52625;BME280;38519;52.540;13.410;2022-12-16T03:34:24;100444.75;;;-6.81;100.00
52625;BME280;38519;52.540;13.410;2022-12-16T03:36:53;100441.22;;;-6.75;100.00
52625;BME280;38519;52.540;13.410;2022-12-16T03:39:20;100430.66;;;-6.79;100.00
52625;BME280;38519;52.540;13.410;2022-12-16T03:41:48;100429.63;;;-6.86;100.00
52625;BME280;38519;52.540;13.410;2022-12-16T03:44:16;100426.56;;;-6.84;100.00
52625;BME280;38519;52.540;13.410;2022-12-16T03:46:42;100425.66;;;-6.84;100.00
52625;BME280;38519;52.540;13.410;2022-12-16T03:49:07;100426.09;;;-6.68;100.00
52625;BME280;38519;52.540;13.410;2022-12-16T03:51:32;100420.03;;;-6.50;100.00
52625;BME280;38519;52.540;13.410;2022-12-16T03:53:58;100429.72;;;-6.48;100.00
52625;BME280;38519;52.540;13.410;2022-12-16T03:56:23;100426.13;;;-6.55;100.00
52625;BME280;38519;52.540;13.410;2022-12-16T03:58:49;100423.56;;;-6.68;100.00
52625;BME280;38519;52.540;13.410;2022-12-16T04:01:14;100431.66;;;-6.71;100.00
52625;BME280;38519;52.540;13.410;2022-12-16T04:03:39;100428.34;;;-6.77;100.00
52625;BME280;38519;52.540;13.410;2022-12-16T04:06:05;100428.75;;;-6.74;100.00
52625;BME280;38519;52.540;13.410;2022-12-16T04:08:30;100432.47;;;-6.78;100.00
52625;BME280;38519;52.540;13.410;2022-12-16T04:10:56;100437.47;;;-6.72;100.00
52625;BME280;38519;52.540;13.410;2022-12-16T04:13:40;100429.13;;;-6.71;100.00
52625;BME280;38519;52.540;13.410;2022-12-16T04:16:24;100436.19;;;-6.63;100.00
52625;BME280;38519;52.540;13.410;2022-12-16T04:19:10;100440.84;;;-6.66;100.00
52625;BME280;38519;52.540;13.410;2022-12-16T04:21:59;100433.66;;;-6.63;100.00
52625;BME280;38519;52.540;13.410;2022-12-16T04:24:43;100442.66;;;-6.65;100.00
52625;BME280;38519;52.540;13.410;2022-12-16T04:27:08;100445.59;;;-6.74;100.00
52625;BME280;38519;52.540;13.410;2022-12-16T04:29:48;100451.19;;;-6.77;100.00
52625;BME280;38519;52.540;13.410;2022-12-16T04:32:32;100442.84;;;-6.76;100.00
52625;BME280;38519;52.540;13.410;2022-12-16T04:35:18;100448.84;;;-6.75;100.00
52625;BME280;38519;52.540;13.410;2022-12-16T04:38:02;100447.91;;;-6.76;100.00
52625;BME280;38519;52.540;13.410;2022-12-16T04:40:46;100450.03;;;-6.79;100.00
52625;BME280;38519;52.540;13.410;2022-12-16T04:43:30;100445.16;;;-6.78;100.00
52625;BME280;38519;52.540;13.410;2022-12-16T04:46:14;100450.97;;;-6.79;100.00
52625;BME280;38519;52.540;13.410;2022-12-16T04:48:58;100455.63;;;-6.82;100.00
52625;BME280;38519;52.540;13.410;2022-12-16T04:51:42;100452.38;;;-6.81;100.00
52625;BME280;38519;52.540;13.410;2022-12-16T04:54:26;100457.66;;;-6.79;100.00
52625;BME280;38519;52.540;13.410;2022-12-16T04:57:10;100453.09;;;-6.82;100.00
52625;BME280;38519;52.540;13.410;2022-12-16T04:59:55;100462.03;;;-6.78;100.00
52625;BME280;38519;52.540;13.410;2022-12-16T05:02:39;100461.13;;;-6.79;100.00
52625;BME280;38519;52.540;13.410;2022-12-16T05:05:24;100461.88;;;-6.67;100.00
52625;BME280;38519;52.540;13.410;2022-12-16T05:08:08;100462.50;;;-6.62;100.00
52625;BME280;38519;52.540;13.410;2022-12-16T05:10:52;100466.09;;;-6.73;100.00
52625;BME280;38519;52.540;13.410;2022-12-16T05:13:35;100467.81;;;-6.79;100.00
52625;BME280;38519;52.540;13.410;2022-12-16T05:16:19;100465.28;;;-6.79;100.00
52625;BME280;38519;52.540;13.410;2022-12-16T05:19:03;100467.81;;;-6.79;100.00
52625;BME280;38519;52.540;13.410;2022-12-16T05:21:47;100476.56;;;-6.77;100.00
52625;BME280;38519;52.540;13.410;2022-12-16T05:24:31;100465.00;;;-6.75;100.00
52625;BME280;38519;52.540;13.410;2022-12-16T05:27:15;100463.16;;;-6.76;100.00
52625;BME280;38519;52.540;13.410;2022-12-16T05:29:59;100473.03;;;-6.72;100.00
52625;BME280;38519;52.540;13.410;2022-12-16T05:32:43;100467.53;;;-6.75;100.00
52625;BME280;38519;52.540;13.410;2022-12-16T05:35:27;100476.06;;;-6.74;100.00
52625;BME280;38519;52.540;13.410;2022-12-16T05:38:10;100474.44;;;-6.74;100.00
52625;BME280;38519;52.540;13.410;2022-12-16T05:40:55;100479.81;;;-6.78;100.00
52625;BME280;38519;52.540;13.410;2022-12-16T05:43:39;100479.59;;;-6.80;100.00
52625;BME280;38519;52.540;13.410;2022-12-16T05:46:23;100482.34;;;-6.78;100.00
52625;BME280;38519;52.540;13.410;2022-12-16T05:49:07;100481.44;;;-6.79;100.00
52625;BME280;38519;52.540;13.410;2022-12-16T05:51:51;100487.41;;;-6.78;100.00
52625;BME280;38519;52.540;13.410;2022-12-16T05:54:49;100493.28;;;-6.53;100.00
52625;BME280;38519;52.540;13.410;2022-12-16T05:57:33;100504.38;;;-6.53;100.00
52625;BME280;38519;52.540;13.410;2022-12-16T06:00:17;100502.91;;;-6.64;100.00
52625;BME280;38519;52.540;13.410;2022-12-16T06:03:01;100501.22;;;-6.76;100.00
52625;BME280;38519;52.540;13.410;2022-12-16T06:05:45;100510.69;;;-6.75;100.00
52625;BME280;38519;52.540;13.410;2022-12-16T06:08:29;100509.69;;;-6.70;100.00
52625;BME280;38519;52.540;13.410;2022-12-16T06:11:13;100518.56;;;-6.61;100.00
52625;BME280;38519;52.540;13.410;2022-12-16T06:13:57;100519.41;;;-6.54;100.00
52625;BME280;38519;52.540;13.410;2022-12-16T06:16:41;100531.38;;;-6.53;100.00
52625;BME280;38519;52.540;13.410;2022-12-16T06:19:24;100537.03;;;-6.62;100.00
52625;BME280;38519;52.540;13.410;2022-12-16T06:22:08;100542.44;;;-6.66;100.00
52625;BME280;38519;52.540;13.410;2022-12-16T06:24:53;100549.75;;;-6.62;100.00
52625;BME280;38519;52.540;13.410;2022-12-16T06:27:36;100545.25;;;-6.70;100.00
52625;BME280;38519;52.540;13.410;2022-12-16T06:30:20;100557.47;;;-6.67;100.00
52625;BME280;38519;52.540;13.410;2022-12-16T06:33:04;100556.41;;;-6.75;100.00
52625;BME280;38519;52.540;13.410;2022-12-16T06:35:48;100556.41;;;-6.75;100.00
52625;BME280;38519;52.540;13.410;2022-12-16T06:38:32;100563.00;;;-6.70;100.00
52625;BME280;38519;52.540;13.410;2022-12-16T06:41:16;100574.16;;;-6.75;100.00
52625;BME280;38519;52.540;13.410;2022-12-16T06:44:00;100565.50;;;-6.64;100.00
52625;BME280;38519;52.540;13.410;2022-12-16T06:46:44;100569.22;;;-6.49;100.00
52625;BME280;38519;52.540;13.410;2022-12-16T06:49:28;100571.38;;;-6.39;100.00
52625;BME280;38519;52.540;13.410;2022-12-16T06:52:12;100570.78;;;-6.31;100.00
52625;BME280;38519;52.540;13.410;2022-12-16T06:54:56;100585.56;;;-6.29;100.00
52625;BME280;38519;52.540;13.410;2022-12-16T06:57:41;100587.09;;;-6.42;100.00
52625;BME280;38519;52.540;13.410;2022-12-16T07:00:25;100583.47;;;-6.63;100.00
52625;BME280;38519;52.540;13.410;2022-12-16T07:03:09;100583.47;;;-6.81;100.00
52625;BME280;38519;52.540;13.410;2022-12-16T07:05:53;100588.06;;;-6.79;100.00
52625;BME280;38519;52.540;13.410;2022-12-16T07:08:37;100592.84;;;-6.74;100.00
52625;BME280;38519;52.540;13.410;2022-12-16T07:11:21;100593.66;;;-6.63;100.00
52625;BME280;38519;52.540;13.410;2022-12-16T07:14:05;100604.91;;;-6.61;100.00
52625;BME280;38519;52.540;13.410;2022-12-16T07:16:49;100612.59;;;-6.48;100.00
52625;BME280;38519;52.540;13.410;2022-12-16T07:19:44;100619.88;;;-6.75;100.00
52625;BME280;38519;52.540;13.410;2022-12-16T07:22:28;100629.56;;;-6.72;100.00
52625;BME280;38519;52.540;13.410;2022-12-16T07:25:12;100631.25;;;-6.79;100.00
52625;BME280;38519;52.540;13.410;2022-12-16T07:27:55;100635.53;;;-6.72;100.00
52625;BME280;38519;52.540;13.410;2022-12-16T07:30:41;100643.16;;;-6.72;100.00
52625;BME280;38519;52.540;13.410;2022-12-16T07:33:24;100642.56;;;-6.82;100.00
52625;BME280;38519;52.540;13.410;2022-12-16T07:36:08;100644.56;;;-6.74;100.00
52625;BME280;38519;52.540;13.410;2022-12-16T07:38:52;100655.94;;;-6.59;100.00
52625;BME280;38519;52.540;13.410;2022-12-16T07:41:36;100660.78;;;-6.61;100.00
52625;BME280;38519;52.540;13.410;2022-12-16T07:44:20;100662.06;;;-6.51;100.00
52625;BME280;38519;52.540;13.410;2022-12-16T07:47:05;100666.59;;;-6.43;100.00
52625;BME280;38519;52.540;13.410;2022-12-16T07:49:48;100675.88;;;-6.68;100.00
52625;BME280;38519;52.540;13.410;2022-12-16T07:52:32;100674.91;;;-6.63;100.00
52625;BME280;38519;52.540;13.410;2022-12-16T07:55:16;100682.09;;;-6.66;100.00
52625;BME280;38519;52.540;13.410;2022-12-16T07:58:01;100680.22;;;-6.61;100.00
52625;BME280;38519;52.540;13.410;2022-12-16T08:00:45;100687.88;;;-6.67;100.00
52625;BME280;38519;52.540;13.410;2022-12-16T08:03:29;100694.81;;;-6.66;100.00
52625;BME280;38519;52.540;13.410;2022-12-16T08:06:13;100695.28;;;-6.68;100.00
52625;BME280;38519;52.540;13.410;2022-12-16T08:08:57;100692.19;;;-6.60;100.00
52625;BME280;38519;52.540;13.410;2022-12-16T08:11:40;100694.38;;;-6.50;100.00
52625;BME280;38519;52.540;13.410;2022-12-16T08:14:25;100699.75;;;-6.54;100.00
52625;BME280;38519;52.540;13.410;2022-12-16T08:17:09;100703.16;;;-6.48;100.00
52625;BME280;38519;52.540;13.410;2022-12-16T08:19:53;100708.69;;;-6.51;100.00
52625;BME280;38519;52.540;13.410;2022-12-16T08:22:38;100711.38;;;-6.44;100.00
52625;BME280;38519;52.540;13.410;2022-12-16T08:25:22;100710.63;;;-6.37;100.00
52625;BME280;38519;52.540;13.410;2022-12-16T08:28:06;100713.09;;;-6.31;100.00
52625;BME280;38519;52.540;13.410;2022-12-16T08:30:51;100719.19;;;-6.05;100.00
52625;BME280;38519;52.540;13.410;2022-12-16T08:33:35;100717.50;;;-5.99;100.00
52625;BME280;38519;52.540;13.410;2022-12-16T08:36:19;100720.78;;;-6.00;100.00
52625;BME280;38519;52.540;13.410;2022-12-16T08:39:03;100719.84;;;-5.88;100.00
52625;BME280;38519;52.540;13.410;2022-12-16T08:41:47;100720.06;;;-5.86;100.00
52625;BME280;38519;52.540;13.410;2022-12-16T08:44:31;100720.84;;;-5.93;100.00
52625;BME280;38519;52.540;13.410;2022-12-16T08:47:15;100721.22;;;-5.84;100.00
52625;BME280;38519;52.540;13.410;2022-12-16T08:49:59;100713.06;;;-5.81;100.00
52625;BME280;38519;52.540;13.410;2022-12-16T08:52:43;100720.50;;;-5.83;100.00
52625;BME280;38519;52.540;13.410;2022-12-16T08:55:27;100725.75;;;-5.63;100.00
52625;BME280;38519;52.540;13.410;2022-12-16T08:58:11;100732.22;;;-5.46;100.00
52625;BME280;38519;52.540;13.410;2022-12-16T09:00:55;100731.19;;;-5.41;100.00
52625;BME280;38519;52.540;13.410;2022-12-16T09:03:39;100740.53;;;-5.47;100.00
52625;BME280;38519;52.540;13.410;2022-12-16T09:06:23;100739.84;;;-5.46;100.00
52625;BME280;38519;52.540;13.410;2022-12-16T09:09:27;100736.25;;;-5.23;100.00
52625;BME280;38519;52.540;13.410;2022-12-16T09:12:11;100738.47;;;-5.19;100.00
52625;BME280;38519;52.540;13.410;2022-12-16T09:14:55;100740.72;;;-5.15;100.00
52625;BME280;38519;52.540;13.410;2022-12-16T09:17:40;100742.56;;;-5.26;100.00
52625;BME280;38519;52.540;13.410;2022-12-16T09:20:24;100738.63;;;-5.43;100.00
52625;BME280;38519;52.540;13.410;2022-12-16T09:23:07;100742.22;;;-5.35;100.00
52625;BME280;38519;52.540;13.410;2022-12-16T09:25:51;100747.34;;;-5.09;100.00
52625;BME280;38519;52.540;13.410;2022-12-16T09:28:35;100748.94;;;-5.36;100.00
52625;BME280;38519;52.540;13.410;2022-12-16T09:31:19;100750.69;;;-5.29;100.00
52625;BME280;38519;52.540;13.410;2022-12-16T09:34:04;100750.53;;;-4.92;100.00
52625;BME280;38519;52.540;13.410;2022-12-16T09:36:48;100756.25;;;-4.74;100.00
52625;BME280;38519;52.540;13.410;2022-12-16T09:39:32;100759.78;;;-5.05;100.00
52625;BME280;38519;52.540;13.410;2022-12-16T09:48:26;100755.41;;;-5.06;100.00
52625;BME280;38519;52.540;13.410;2022-12-16T09:51:12;100755.41;;;-4.68;100.00
52625;BME280;38519;52.540;13.410;2022-12-16T09:53:57;100747.97;;;-4.92;100.00
52625;BME280;38519;52.540;13.410;2022-12-16T09:56:42;100748.88;;;-4.66;100.00
52625;BME280;38519;52.540;13.410;2022-12-16T09:59:29;100746.44;;;-4.46;100.00
52625;BME280;38519;52.540;13.410;2022-12-16T10:02:15;100753.28;;;-4.78;100.00
52625;BME280;38519;52.540;13.410;2022-12-16T10:05:00;100743.28;;;-4.50;100.00
52625;BME280;38519;52.540;13.410;2022-12-16T10:07:56;100755.00;;;-4.45;100.00
52625;BME280;38519;52.540;13.410;2022-12-16T10:10:55;100753.25;;;-4.26;100.00
52625;BME280;38519;52.540;13.410;2022-12-16T10:14:04;100755.84;;;-4.19;100.00
52625;BME280;38519;52.540;13.410;2022-12-16T10:16:57;100744.28;;;-4.30;100.00
52625;BME280;38519;52.540;13.410;2022-12-16T10:19:55;100742.19;;;-4.19;100.00
52625;BME280;38519;52.540;13.410;2022-12-16T10:25:41;100741.19;;;-3.81;100.00
52625;BME280;38519;52.540;13.410;2022-12-16T10:31:16;100739.69;;;-3.67;100.00
52625;BME280;38519;52.540;13.410;2022-12-16T10:34:00;100737.59;;;-3.56;100.00
52625;BME280;38519;52.540;13.410;2022-12-16T10:36:45;100732.53;;;-3.49;100.00
52625;BME280;38519;52.540;13.410;2022-12-16T10:39:31;100737.25;;;-3.52;100.00
52625;BME280;38519;52.540;13.410;2022-12-16T10:45:23;100748.63;;;-3.63;100.00
52625;BME280;38519;52.540;13.410;2022-12-16T10:48:10;100754.13;;;-3.60;100.00
52625;BME280;38519;52.540;13.410;2022-12-16T10:50:54;100751.94;;;-3.64;100.00
52625;BME280;38519;52.540;13.410;2022-12-16T10:53:38;100753.03;;;-3.62;100.00
52625;BME280;38519;52.540;13.410;2022-12-16T10:59:32;100759.38;;;-3.66;100.00
52625;BME280;38519;52.540;13.410;2022-12-16T11:02:19;100763.28;;;-3.75;100.00
52625;BME280;38519;52.540;13.410;2022-12-16T11:05:49;100758.19;;;-3.75;100.00
52625;BME280;38519;52.540;13.410;2022-12-16T11:08:27;100773.75;;;-3.66;100.00
52625;BME280;38519;52.540;13.410;2022-12-16T11:11:22;100771.09;;;-3.60;100.00
52625;BME280;38519;52.540;13.410;2022-12-16T11:17:13;100771.81;;;-3.41;100.00
52625;BME280;38519;52.540;13.410;2022-12-16T11:26:15;100770.78;;;-3.16;100.00
52625;BME280;38519;52.540;13.410;2022-12-16T11:31:49;100769.72;;;-3.11;100.00
52625;BME280;38519;52.540;13.410;2022-12-16T11:34:33;100771.25;;;-2.99;100.00
52625;BME280;38519;52.540;13.410;2022-12-16T11:37:18;100771.13;;;-2.93;100.00
52625;BME280;38519;52.540;13.410;2022-12-16T11:40:03;100783.31;;;-2.70;100.00
52625;BME280;38519;52.540;13.410;2022-12-16T11:42:47;100782.31;;;-2.85;100.00
52625;BME280;38519;52.540;13.410;2022-12-16T11:45:31;100786.09;;;-2.62;100.00
52625;BME280;38519;52.540;13.410;2022-12-16T11:51:00;100785.97;;;-2.56;100.00
52625;BME280;38519;52.540;13.410;2022-12-16T11:56:31;100786.66;;;-2.64;100.00
52625;BME280;38519;52.540;13.410;2022-12-16T12:01:59;100790.09;;;-2.71;100.00
52625;BME280;38519;52.540;13.410;2022-12-16T12:04:47;100786.78;;;-2.70;100.00
52625;BME280;38519;52.540;13.410;2022-12-16T12:13:40;100792.00;;;-2.56;100.00
52625;BME280;38519;52.540;13.410;2022-12-16T12:19:20;100790.78;;;-2.45;100.00
52625;BME280;38519;52.540;13.410;2022-12-16T12:22:10;100787.25;;;-2.52;100.00
52625;BME280;38519;52.540;13.410;2022-12-16T12:25:31;100794.25;;;-2.44;100.00
52625;BME280;38519;52.540;13.410;2022-12-16T12:30:57;100801.91;;;-2.51;100.00
52625;BME280;38519;52.540;13.410;2022-12-16T12:36:37;100805.53;;;-2.57;100.00
52625;BME280;38519;52.540;13.410;2022-12-16T12:42:24;100814.19;;;-2.69;100.00
52625;BME280;38519;52.540;13.410;2022-12-16T12:48:46;100817.91;;;-2.60;100.00
52625;BME280;38519;52.540;13.410;2022-12-16T12:51:12;100806.34;;;-2.70;100.00
52625;BME280;38519;52.540;13.410;2022-12-16T12:57:01;100814.88;;;-2.50;100.00
52625;BME280;38519;52.540;13.410;2022-12-16T12:59:49;100816.34;;;-2.45;100.00
52625;BME280;38519;52.540;13.410;2022-12-16T13:05:31;100825.03;;;-2.57;100.00
52625;BME280;38519;52.540;13.410;2022-12-16T13:08:33;100831.22;;;-2.62;100.00
52625;BME280;38519;52.540;13.410;2022-12-16T13:11:24;100826.66;;;-2.65;100.00
52625;BME280;38519;52.540;13.410;2022-12-16T13:17:11;100838.69;;;-2.64;100.00
52625;BME280;38519;52.540;13.410;2022-12-16T13:19:55;100841.03;;;-2.65;100.00
52625;BME280;38519;52.540;13.410;2022-12-16T13:22:40;100842.91;;;-2.64;100.00
52625;BME280;38519;52.540;13.410;2022-12-16T13:25:31;100844.38;;;-2.59;100.00
52625;BME280;38519;52.540;13.410;2022-12-16T13:31:09;100855.69;;;-2.64;100.00
52625;BME280;38519;52.540;13.410;2022-12-16T13:33:54;100852.75;;;-2.60;100.00
52625;BME280;38519;52.540;13.410;2022-12-16T13:36:39;100859.34;;;-2.62;100.00
52625;BME280;38519;52.540;13.410;2022-12-16T13:39:27;100866.59;;;-2.65;100.00
52625;BME280;38519;52.540;13.410;2022-12-16T13:42:31;100865.34;;;-2.62;100.00
52625;BME280;38519;52.540;13.410;2022-12-16T13:45:29;100861.38;;;-2.60;100.00
52625;BME280;38519;52.540;13.410;2022-12-16T13:48:34;100860.25;;;-2.62;100.00
52625;BME280;38519;52.540;13.410;2022-12-16T13:57:08;100878.00;;;-2.56;100.00
52625;BME280;38519;52.540;13.410;2022-12-16T13:59:53;100884.00;;;-2.63;100.00
52625;BME280;38519;52.540;13.410;2022-12-16T14:02:40;100888.13;;;-2.50;100.00
52625;BME280;38519;52.540;13.410;2022-12-16T14:05:29;100891.19;;;-2.53;100.00
52625;BME280;38519;52.540;13.410;2022-12-16T14:08:14;100894.44;;;-2.54;100.00
52625;BME280;38519;52.540;13.410;2022-12-16T14:11:02;100900.81;;;-2.58;100.00
52625;BME280;38519;52.540;13.410;2022-12-16T14:13:56;100905.03;;;-2.58;100.00
52625;BME280;38519;52.540;13.410;2022-12-16T14:19:51;100915.97;;;-2.59;100.00
52625;BME280;38519;52.540;13.410;2022-12-16T14:25:36;100917.94;;;-2.64;100.00
52625;BME280;38519;52.540;13.410;2022-12-16T14:28:39;100921.03;;;-2.66;100.00
52625;BME280;38519;52.540;13.410;2022-12-16T14:31:28;100921.16;;;-2.72;100.00
52625;BME280;38519;52.540;13.410;2022-12-16T14:37:06;100927.75;;;-2.67;100.00
52625;BME280;38519;52.540;13.410;2022-12-16T14:39:50;100930.31;;;-2.67;100.00
52625;BME280;38519;52.540;13.410;2022-12-16T14:42:38;100933.72;;;-2.73;100.00
52625;BME280;38519;52.540;13.410;2022-12-16T14:45:33;100934.78;;;-2.79;100.00
52625;BME280;38519;52.540;13.410;2022-12-16T14:48:33;100951.69;;;-2.86;100.00
52625;BME280;38519;52.540;13.410;2022-12-16T14:51:28;100952.59;;;-2.86;100.00
52625;BME280;38519;52.540;13.410;2022-12-16T14:56:59;100949.53;;;-2.83;100.00
52625;BME280;38519;52.540;13.410;2022-12-16T14:59:43;100947.88;;;-2.83;100.00
52625;BME280;38519;52.540;13.410;2022-12-16T15:02:29;100949.72;;;-2.82;100.00
52625;BME280;38519;52.540;13.410;2022-12-16T15:05:15;100953.34;;;-2.87;100.00
52625;BME280;38519;52.540;13.410;2022-12-16T15:08:03;100951.81;;;-2.92;100.00
52625;BME280;38519;52.540;13.410;2022-12-16T15:10:48;100952.03;;;-2.90;100.00
52625;BME280;38519;52.540;13.410;2022-12-16T15:13:32;100963.34;;;-2.88;100.00
52625;BME280;38519;52.540;13.410;2022-12-16T15:16:18;100965.72;;;-2.90;100.00
52625;BME280;38519;52.540;13.410;2022-12-16T15:19:02;100960.72;;;-2.96;100.00
52625;BME280;38519;52.540;13.410;2022-12-16T15:21:47;100967.97;;;-2.99;100.00
52625;BME280;38519;52.540;13.410;2022-12-16T15:24:34;100968.63;;;-3.07;100.00
52625;BME280;38519;52.540;13.410;2022-12-16T15:27:26;100973.13;;;-3.12;100.00
52625;BME280;38519;52.540;13.410;2022-12-16T15:33:14;100980.91;;;-3.17;100.00
52625;BME280;38519;52.540;13.410;2022-12-16T15:36:02;100983.88;;;-3.14;100.00
52625;BME280;38519;52.540;13.410;2022-12-16T15:38:47;100995.91;;;-3.13;100.00
52625;BME280;38519;52.540;13.410;2022-12-16T15:41:32;101001.97;;;-3.13;100.00